createdAt,value
2022-08-27T00:03:46.533Z,26.75
2022-08-27T00:06:16.329Z,23.80
2022-08-27T00:08:47.879Z,25.55
2022-08-27T00:11:17.501Z,29.27
2022-08-27T00:13:45.269Z,27.08
2022-08-27T00:16:14.730Z,31.73
2022-08-27T00:18:43.338Z,35.72
2022-08-27T00:21:16.978Z,30.40
2022-08-27T00:23:44.192Z,47.80
2022-08-27T00:26:11.258Z,41.05
2022-08-27T00:28:40.161Z,39.72
2022-08-27T00:31:07.451Z,37.25
2022-08-27T00:33:35.723Z,37.42
2022-08-27T00:36:04.606Z,41.43
2022-08-27T00:38:32.203Z,27.33
2022-08-27T00:41:01.337Z,36.63
2022-08-27T00:43:32.085Z,34.08
2022-08-27T00:46:06.397Z,34.85
2022-08-27T00:48:36.263Z,35.27
2022-08-27T00:51:04.848Z,37.78
2022-08-27T00:53:33.612Z,36.20
2022-08-27T00:56:09.043Z,41.83
2022-08-27T00:58:39.901Z,39.80
2022-08-27T01:01:10.660Z,44.77
2022-08-27T01:03:38.543Z,37.83
2022-08-27T01:06:10.417Z,36.03
2022-08-27T01:08:40.970Z,39.30
2022-08-27T01:11:08.552Z,42.10
2022-08-27T01:13:59.889Z,38.87
2022-08-27T01:16:33.817Z,33.08
2022-08-27T01:19:01.364Z,34.58
2022-08-27T01:22:25.003Z,37.17
2022-08-27T01:24:56.014Z,41.55
2022-08-27T01:27:26.931Z,40.80
2022-08-27T01:29:54.234Z,41.10
2022-08-27T01:32:30.334Z,43.92
2022-08-27T01:34:58.027Z,37.60
2022-08-27T01:37:26.983Z,36.97
2022-08-27T01:39:56.055Z,36.50
2022-08-27T01:42:36.257Z,33.72
2022-08-27T01:45:08.082Z,40.45
2022-08-27T01:47:37.295Z,33.70
2022-08-27T01:50:19.001Z,34.08
2022-08-27T01:52:46.920Z,41.80
2022-08-27T01:55:17.373Z,43.53
2022-08-27T01:57:45.288Z,37.00
2022-08-27T02:00:16.861Z,42.95
2022-08-27T02:02:44.730Z,42.92
2022-08-27T02:05:12.690Z,44.43
2022-08-27T02:07:40.743Z,42.05
2022-08-27T02:10:10.543Z,41.58
2022-08-27T02:12:38.493Z,43.97
2022-08-27T02:15:06.284Z,46.78
2022-08-27T02:17:34.443Z,43.83
2022-08-27T02:20:01.578Z,41.03
2022-08-27T02:22:29.867Z,40.65
2022-08-27T02:24:56.956Z,42.17
2022-08-27T02:27:24.113Z,42.58
2022-08-27T02:29:51.877Z,46.50
2022-08-27T02:32:31.462Z,40.00
2022-08-27T02:35:00.164Z,45.35
2022-08-27T02:37:28.177Z,44.95
2022-08-27T02:39:55.740Z,38.78
2022-08-27T02:42:22.856Z,43.87
2022-08-27T02:44:50.010Z,42.28
2022-08-27T02:47:17.156Z,40.30
2022-08-27T02:49:44.582Z,46.75
2022-08-27T02:52:12.025Z,48.78
2022-08-27T02:54:40.695Z,44.00
2022-08-27T02:57:07.819Z,39.72
2022-08-27T02:59:35.156Z,46.67
2022-08-27T03:02:02.203Z,50.13
2022-08-27T03:04:29.544Z,46.53
2022-08-27T03:06:58.871Z,47.27
2022-08-27T03:09:25.974Z,44.60
2022-08-27T03:11:53.872Z,42.97
2022-08-27T03:14:21.052Z,44.17
2022-08-27T03:16:48.122Z,46.40
2022-08-27T03:19:19.863Z,56.43
2022-08-27T03:21:54.441Z,55.00
2022-08-27T03:24:21.847Z,51.33
2022-08-27T03:26:52.833Z,58.95
2022-08-27T03:29:21.197Z,46.42
2022-08-27T03:31:48.518Z,56.63
2022-08-27T03:34:19.834Z,44.17
2022-08-27T03:36:49.041Z,43.17
2022-08-27T03:39:16.067Z,41.55
2022-08-27T03:41:54.819Z,55.40
2022-08-27T03:44:24.348Z,49.13
2022-08-27T03:46:52.361Z,45.10
2022-08-27T03:49:21.714Z,39.38
2022-08-27T03:51:51.505Z,43.83
2022-08-27T03:54:19.380Z,40.65
2022-08-27T03:56:47.130Z,48.87
2022-08-27T03:59:15.855Z,45.00
2022-08-27T04:01:44.445Z,52.40
2022-08-27T04:04:13.194Z,55.05
2022-08-27T04:06:41.426Z,49.83
2022-08-27T04:09:08.426Z,56.27
2022-08-27T04:11:35.658Z,59.58
2022-08-27T04:14:19.743Z,58.03
2022-08-27T04:16:52.419Z,58.08
2022-08-27T04:19:21.234Z,72.57
2022-08-27T04:21:51.156Z,69.27
2022-08-27T04:24:18.247Z,138.85
2022-08-27T04:26:47.671Z,130.23
2022-08-27T04:29:14.645Z,144.65
2022-08-27T04:31:42.043Z,115.07
2022-08-27T04:34:09.217Z,152.47
2022-08-27T04:36:36.284Z,116.13
2022-08-27T04:39:03.465Z,116.97
2022-08-27T04:41:33.631Z,141.82
2022-08-27T04:44:07.134Z,139.50
2022-08-27T04:46:37.477Z,149.37
2022-08-27T04:49:10.104Z,136.25
2022-08-27T04:52:25.293Z,121.80
2022-08-27T04:55:50.817Z,91.00
2022-08-27T04:58:20.781Z,74.45
2022-08-27T05:00:51.050Z,78.00
2022-08-27T05:03:23.225Z,65.00
2022-08-27T05:06:06.673Z,61.03
2022-08-27T05:08:34.409Z,59.20
2022-08-27T05:11:02.280Z,54.45
2022-08-27T05:13:30.204Z,57.03
2022-08-27T05:16:06.727Z,57.65
2022-08-27T05:18:38.062Z,59.78
2022-08-27T05:21:25.602Z,51.03
2022-08-27T05:23:54.460Z,64.50
2022-08-27T05:26:22.376Z,70.50
2022-08-27T05:28:49.402Z,88.05
2022-08-27T05:31:18.222Z,69.90
2022-08-27T05:33:46.413Z,69.43
2022-08-27T05:36:22.676Z,57.22
2022-08-27T05:38:50.508Z,84.27
2022-08-27T05:41:20.684Z,76.22
2022-08-27T05:43:50.486Z,77.45
2022-08-27T05:46:20.869Z,75.28
2022-08-27T05:49:40.417Z,66.45
2022-08-27T05:52:11.777Z,66.33
2022-08-27T05:54:39.965Z,74.40
2022-08-27T05:57:07.152Z,69.60
2022-08-27T05:59:52.767Z,74.32
2022-08-27T06:02:20.699Z,90.03
2022-08-27T06:04:47.891Z,88.37
2022-08-27T06:07:15.299Z,79.45
2022-08-27T06:09:43.589Z,76.60
2022-08-27T06:12:10.808Z,78.95
2022-08-27T06:14:38.525Z,83.80
2022-08-27T06:17:06.574Z,85.53
2022-08-27T06:19:34.949Z,105.10
2022-08-27T06:23:28.323Z,78.30
2022-08-27T06:29:27.437Z,93.40
2022-08-27T06:31:57.069Z,106.10
2022-08-27T06:34:24.266Z,104.53
2022-08-27T06:36:53.708Z,78.13
2022-08-27T06:39:21.897Z,82.43
2022-08-27T06:41:50.370Z,68.90
2022-08-27T06:44:21.606Z,78.37
2022-08-27T06:46:48.704Z,71.20
2022-08-27T06:49:15.708Z,71.15
2022-08-27T06:51:46.016Z,78.53
2022-08-27T06:54:14.498Z,70.75
2022-08-27T06:56:44.600Z,62.53
2022-08-27T06:59:15.661Z,78.10
2022-08-27T07:01:46.130Z,70.88
2022-08-27T07:04:18.499Z,71.97
2022-08-27T07:06:45.693Z,76.05
2022-08-27T07:09:12.911Z,58.83
2022-08-27T07:11:58.969Z,60.53
2022-08-27T07:14:32.938Z,64.30
2022-08-27T07:17:04.377Z,68.82
2022-08-27T07:19:32.491Z,51.85
2022-08-27T07:22:00.015Z,58.00
2022-08-27T07:24:27.118Z,61.38
2022-08-27T07:26:54.661Z,65.63
2022-08-27T07:29:21.810Z,56.92
2022-08-27T07:31:49.124Z,70.78
2022-08-27T07:34:16.260Z,77.90
2022-08-27T07:36:43.482Z,78.83
2022-08-27T07:39:10.573Z,62.63
2022-08-27T07:41:58.042Z,71.00
2022-08-27T07:44:28.094Z,49.85
2022-08-27T07:47:00.092Z,99.63
2022-08-27T07:49:29.036Z,86.85
2022-08-27T07:51:58.512Z,85.18
2022-08-27T07:54:25.638Z,67.07
2022-08-27T07:56:55.646Z,67.18
2022-08-27T07:59:27.557Z,59.17
2022-08-27T08:01:57.714Z,56.95
2022-08-27T08:04:27.415Z,35.30
2022-08-27T08:06:55.869Z,32.50
2022-08-27T08:09:26.453Z,31.65
2022-08-27T08:11:54.398Z,29.97
2022-08-27T08:14:21.818Z,30.00
2022-08-27T08:16:49.029Z,28.45
2022-08-27T08:19:16.359Z,28.15
2022-08-27T08:21:43.738Z,25.75
2022-08-27T08:24:10.987Z,25.07
2022-08-27T08:26:38.086Z,25.10
2022-08-27T08:29:05.435Z,25.65
2022-08-27T08:31:33.103Z,25.75
2022-08-27T08:34:00.231Z,27.10
2022-08-27T08:36:27.407Z,21.67
2022-08-27T08:38:54.891Z,25.15
2022-08-27T08:41:48.776Z,15.15
2022-08-27T08:44:31.269Z,13.45
2022-08-27T08:47:22.048Z,16.65
2022-08-27T08:50:00.796Z,21.30
2022-08-27T08:52:58.677Z,21.55
2022-08-27T08:55:37.993Z,23.92
2022-08-27T08:58:26.049Z,29.23
2022-08-27T09:01:01.069Z,28.23
2022-08-27T09:03:29.964Z,33.00
2022-08-27T09:06:06.160Z,38.00
2022-08-27T09:08:41.939Z,37.92
2022-08-27T09:11:23.148Z,21.58
2022-08-27T09:17:35.517Z,20.67
2022-08-27T09:20:13.189Z,18.50
2022-08-27T09:23:05.630Z,25.02
2022-08-27T09:25:35.524Z,22.10
2022-08-27T09:28:27.242Z,23.45
2022-08-27T09:30:55.970Z,21.37
2022-08-27T09:33:23.216Z,23.80
2022-08-27T09:35:52.267Z,26.98
2022-08-27T09:38:28.658Z,23.23
2022-08-27T09:41:01.079Z,24.77
2022-08-27T09:43:31.609Z,27.47
2022-08-27T09:46:07.849Z,22.83
2022-08-27T09:48:37.729Z,23.63
2022-08-27T09:51:22.075Z,20.55
2022-08-27T09:54:00.122Z,22.27
2022-08-27T09:56:31.624Z,21.97
2022-08-27T09:59:04.819Z,25.52
2022-08-27T10:01:35.244Z,27.80
2022-08-27T10:04:08.395Z,32.45
2022-08-27T10:07:01.513Z,28.92
2022-08-27T10:09:43.295Z,26.10
2022-08-27T10:12:23.636Z,27.33
2022-08-27T10:15:13.725Z,29.20
2022-08-27T10:18:31.726Z,28.77
2022-08-27T10:21:39.775Z,30.08
2022-08-27T10:24:19.207Z,25.20
2022-08-27T10:26:58.243Z,27.58
2022-08-27T10:29:41.540Z,29.10
2022-08-27T10:32:27.439Z,31.33
2022-08-27T10:35:00.365Z,31.83
2022-08-27T10:37:59.517Z,26.33
2022-08-27T10:40:30.503Z,24.83
2022-08-27T10:43:38.379Z,27.92
2022-08-27T10:46:49.857Z,24.13
2022-08-27T10:49:51.995Z,29.85
2022-08-27T10:52:29.507Z,24.93
2022-08-27T10:55:15.225Z,24.17
2022-08-27T10:58:15.733Z,19.00
2022-08-27T11:01:05.714Z,18.30
2022-08-27T11:03:40.306Z,18.65
2022-08-27T11:09:36.989Z,24.10
2022-08-27T11:12:21.943Z,25.20
2022-08-27T11:14:57.388Z,19.65
2022-08-27T11:17:52.167Z,23.73
2022-08-27T11:20:26.241Z,28.37
2022-08-27T11:23:07.294Z,30.38
2022-08-27T11:25:59.631Z,29.25
2022-08-27T11:28:39.738Z,27.00
2022-08-27T11:31:43.743Z,29.75
2022-08-27T11:34:27.782Z,37.33
2022-08-27T11:37:09.091Z,25.05
2022-08-27T11:39:47.539Z,23.92
2022-08-27T11:42:32.667Z,21.73
2022-08-27T11:45:29.864Z,25.92
2022-08-27T11:48:01.269Z,23.90
2022-08-27T11:50:40.575Z,25.05
2022-08-27T11:53:08.715Z,23.75
2022-08-27T11:55:39.130Z,27.27
2022-08-27T11:58:18.149Z,20.45
2022-08-27T12:00:46.699Z,17.90
2022-08-27T12:03:19.881Z,23.13
2022-08-27T12:05:50.157Z,22.17
2022-08-27T12:08:27.347Z,30.42
2022-08-27T12:11:20.845Z,20.40
2022-08-27T12:13:51.898Z,20.33
2022-08-27T12:16:42.243Z,19.98
2022-08-27T12:19:28.049Z,19.10
2022-08-27T12:22:07.456Z,21.50
2022-08-27T12:24:58.196Z,21.08
2022-08-27T12:27:35.168Z,23.03
2022-08-27T12:30:07.002Z,18.85
2022-08-27T12:32:39.111Z,18.70
2022-08-27T12:35:24.953Z,18.50
2022-08-27T12:38:11.392Z,18.23
2022-08-27T12:40:43.067Z,17.77
2022-08-27T12:43:19.583Z,20.08
2022-08-27T12:45:58.078Z,23.10
2022-08-27T12:48:28.598Z,23.02
2022-08-27T12:51:00.851Z,23.95
2022-08-27T12:53:43.707Z,23.33
2022-08-27T12:56:26.959Z,22.80
2022-08-27T12:58:54.118Z,21.75
2022-08-27T13:01:47.023Z,25.25
2022-08-27T13:04:24.526Z,23.17
2022-08-27T13:06:52.282Z,18.70
2022-08-27T13:09:34.995Z,22.63
2022-08-27T13:12:04.880Z,23.13
2022-08-27T13:14:41.372Z,22.35
2022-08-27T13:17:16.892Z,21.38
2022-08-27T13:19:57.730Z,24.10
2022-08-27T13:22:40.549Z,20.13
2022-08-27T13:25:23.485Z,20.75
2022-08-27T13:28:04.376Z,22.90
2022-08-27T13:30:36.371Z,20.38
2022-08-27T13:33:06.628Z,22.13
2022-08-27T13:35:34.887Z,20.90
2022-08-27T13:38:03.966Z,20.13
2022-08-27T13:40:35.114Z,19.08
2022-08-27T13:43:09.801Z,22.63
2022-08-27T13:45:41.749Z,21.57
2022-08-27T13:48:11.884Z,34.53
2022-08-27T13:50:53.982Z,59.03
2022-08-27T13:53:49.252Z,39.55
2022-08-27T13:56:34.473Z,31.77
2022-08-27T13:59:24.232Z,27.93
2022-08-27T14:02:09.748Z,25.90
2022-08-27T14:04:46.265Z,23.35
2022-08-27T14:07:30.014Z,27.33
2022-08-27T14:10:36.159Z,25.92
2022-08-27T14:13:18.250Z,31.30
2022-08-27T14:16:00.221Z,29.95
2022-08-27T14:18:58.520Z,21.38
2022-08-27T14:21:28.385Z,22.67
2022-08-27T14:23:59.447Z,27.45
2022-08-27T14:26:27.355Z,26.60
2022-08-27T14:28:55.270Z,25.20
2022-08-27T14:31:23.218Z,25.75
2022-08-27T14:33:54.336Z,26.85
2022-08-27T14:36:23.732Z,24.02
2022-08-27T14:38:51.955Z,26.77
2022-08-27T14:41:21.570Z,26.83
2022-08-27T14:43:51.425Z,31.60
2022-08-27T14:46:41.503Z,29.40
2022-08-27T14:49:38.623Z,25.95
2022-08-27T14:52:07.174Z,30.80
2022-08-27T14:54:34.697Z,27.40
2022-08-27T14:57:03.174Z,29.55
2022-08-27T14:59:33.711Z,31.20
2022-08-27T15:02:02.401Z,25.65
2022-08-27T15:04:32.532Z,24.17
2022-08-27T15:07:00.652Z,26.45
2022-08-27T15:09:28.970Z,26.75
2022-08-27T15:11:57.470Z,25.35
2022-08-27T15:14:28.641Z,24.20
2022-08-27T15:16:56.086Z,24.73
2022-08-27T15:19:24.823Z,23.20
2022-08-27T15:21:53.523Z,24.45
2022-08-27T15:24:27.348Z,19.55
2022-08-27T15:26:59.902Z,21.05
2022-08-27T15:29:27.663Z,23.07
2022-08-27T15:31:55.475Z,21.85
2022-08-27T15:34:22.535Z,19.98
2022-08-27T15:36:49.757Z,25.55
2022-08-27T15:39:16.861Z,25.88
2022-08-27T15:42:05.368Z,25.23
2022-08-27T15:44:31.485Z,24.17
2022-08-27T15:46:58.640Z,22.50
2022-08-27T15:49:25.754Z,19.48
2022-08-27T15:51:53.040Z,22.27
2022-08-27T15:54:21.508Z,21.17
2022-08-27T15:56:48.696Z,23.88
2022-08-27T15:59:16.903Z,22.83
2022-08-27T16:01:45.003Z,24.33
2022-08-27T16:04:12.178Z,23.00
2022-08-27T16:06:39.409Z,26.77
2022-08-27T16:09:07.296Z,25.83
2022-08-27T16:11:34.610Z,20.45
2022-08-27T16:14:01.766Z,21.85
2022-08-27T16:16:32.519Z,25.95
2022-08-27T16:19:05.293Z,24.87
2022-08-27T16:21:35.158Z,28.77
2022-08-27T16:24:03.277Z,29.13
2022-08-27T16:26:32.474Z,31.40
2022-08-27T16:28:59.648Z,29.60
2022-08-27T16:31:26.970Z,26.37
2022-08-27T16:33:54.413Z,30.55
2022-08-27T16:36:23.744Z,37.55
2022-08-27T16:38:53.200Z,33.78
2022-08-27T16:41:21.473Z,33.78
2022-08-27T16:43:49.244Z,38.40
2022-08-27T16:46:16.421Z,39.33
2022-08-27T16:49:02.117Z,41.60
2022-08-27T16:51:34.854Z,42.70
2022-08-27T16:54:06.450Z,48.65
2022-08-27T16:56:37.086Z,49.17
2022-08-27T16:59:05.332Z,41.53
2022-08-27T17:01:33.562Z,39.63
2022-08-27T17:04:14.795Z,57.65
2022-08-27T17:06:45.717Z,45.83
2022-08-27T17:09:12.862Z,37.67
2022-08-27T17:11:42.918Z,42.85
2022-08-27T17:14:12.319Z,38.97
2022-08-27T17:16:41.804Z,40.92
2022-08-27T17:19:10.426Z,45.38
2022-08-27T17:21:45.077Z,50.47
2022-08-27T17:24:13.226Z,46.95
2022-08-27T17:26:40.742Z,42.70
2022-08-27T17:29:07.875Z,52.40
2022-08-27T17:31:41.764Z,53.15
2022-08-27T17:34:15.578Z,50.83
2022-08-27T17:36:44.267Z,57.03
2022-08-27T17:39:12.821Z,50.70
2022-08-27T17:41:42.532Z,64.68
2022-08-27T17:44:28.625Z,59.42
2022-08-27T17:46:58.347Z,68.27
2022-08-27T17:49:26.926Z,70.47
2022-08-27T17:52:02.982Z,72.72
2022-08-27T17:54:40.719Z,81.10
2022-08-27T17:57:25.595Z,84.15
2022-08-27T17:59:53.774Z,81.23
2022-08-27T18:02:28.045Z,82.40
2022-08-27T18:04:55.943Z,80.95
2022-08-27T18:07:23.516Z,86.47
2022-08-27T18:09:51.247Z,91.47
2022-08-27T18:12:21.764Z,80.93
2022-08-27T18:15:11.254Z,95.90
2022-08-27T18:17:42.456Z,100.07
2022-08-27T18:20:13.779Z,95.13
2022-08-27T18:22:48.918Z,95.20
2022-08-27T18:25:18.518Z,101.90
2022-08-27T18:27:47.359Z,97.13
2022-08-27T18:30:16.828Z,103.50
2022-08-27T18:32:43.921Z,105.63
2022-08-27T18:35:25.508Z,114.10
2022-08-27T18:37:52.822Z,105.50
2022-08-27T18:40:24.179Z,97.05
2022-08-27T18:42:51.574Z,95.65
2022-08-27T18:45:24.704Z,88.18
2022-08-27T18:47:55.492Z,98.22
2022-08-27T18:50:23.610Z,99.60
2022-08-27T18:52:54.743Z,95.47
2022-08-27T18:55:25.879Z,93.13
2022-08-27T18:57:53.109Z,91.40
2022-08-27T19:00:21.553Z,88.63
2022-08-27T19:02:52.726Z,99.33
2022-08-27T19:05:25.628Z,91.80
2022-08-27T19:07:54.826Z,93.80
2022-08-27T19:10:22.965Z,89.88
2022-08-27T19:12:50.068Z,92.68
2022-08-27T19:15:17.254Z,96.63
2022-08-27T19:17:47.338Z,88.68
2022-08-27T19:20:17.462Z,92.38
2022-08-27T19:22:45.824Z,88.55
2022-08-27T19:25:13.176Z,89.45
2022-08-27T19:27:40.916Z,93.33
2022-08-27T19:30:09.564Z,86.47
2022-08-27T19:32:37.330Z,98.07
2022-08-27T19:35:04.934Z,94.65
2022-08-27T19:37:36.489Z,98.20
2022-08-27T19:40:06.632Z,94.17
2022-08-27T19:42:35.965Z,99.15
2022-08-27T19:45:03.086Z,105.68
2022-08-27T19:47:30.819Z,100.97
2022-08-27T19:49:57.815Z,91.38
2022-08-27T19:52:25.169Z,105.37
2022-08-27T19:55:12.590Z,102.00
2022-08-27T19:57:39.364Z,104.32
2022-08-27T20:00:09.198Z,98.65
2022-08-27T20:02:37.024Z,98.80
2022-08-27T20:05:21.317Z,104.77
2022-08-27T20:07:53.330Z,103.93
2022-08-27T20:10:31.641Z,110.78
2022-08-27T20:13:04.827Z,109.10
2022-08-27T20:15:32.627Z,100.95
2022-08-27T20:18:07.414Z,104.90
2022-08-27T20:20:36.150Z,108.38
2022-08-27T20:23:05.126Z,112.10
2022-08-27T20:25:34.406Z,104.28
2022-08-27T20:28:12.447Z,103.20
2022-08-27T20:30:49.117Z,109.27
2022-08-27T20:33:16.816Z,107.75
2022-08-27T20:35:45.324Z,101.07
2022-08-27T20:38:12.547Z,107.65
2022-08-27T20:40:39.799Z,96.30
2022-08-27T20:43:06.750Z,98.77
2022-08-27T20:45:33.849Z,105.45
2022-08-27T20:48:04.206Z,94.47
2022-08-27T20:50:31.639Z,104.53
2022-08-27T20:52:58.646Z,98.78
2022-08-27T20:55:25.718Z,93.77
2022-08-27T20:58:11.712Z,107.20
2022-08-27T21:00:41.507Z,103.00
2022-08-27T21:03:10.686Z,100.43
2022-08-27T21:05:39.169Z,108.93
2022-08-27T21:08:06.664Z,108.97
2022-08-27T21:10:34.854Z,159.77
2022-08-27T21:13:05.241Z,108.90
2022-08-27T21:15:33.231Z,123.47
2022-08-27T21:18:00.390Z,115.75
2022-08-27T21:20:30.000Z,136.30
2022-08-27T21:22:58.058Z,127.10
2022-08-27T21:25:27.083Z,123.63
2022-08-27T21:27:56.964Z,112.63
2022-08-27T21:30:26.161Z,117.63
2022-08-27T21:32:55.957Z,110.63
2022-08-27T21:35:28.852Z,110.35
2022-08-27T21:37:57.481Z,113.50
2022-08-27T21:40:26.440Z,109.60
2022-08-27T21:42:54.527Z,129.02
2022-08-27T21:45:22.296Z,121.67
2022-08-27T21:47:51.907Z,119.80
2022-08-27T21:50:22.694Z,127.35
2022-08-27T21:52:50.368Z,112.80
2022-08-27T21:55:18.393Z,117.57
2022-08-27T21:57:45.492Z,108.60
2022-08-27T22:00:16.713Z,125.60
2022-08-27T22:02:43.813Z,120.70
2022-08-27T22:05:10.757Z,118.18
2022-08-27T22:07:38.190Z,116.70
2022-08-27T22:10:06.713Z,114.13
2022-08-27T22:12:34.154Z,107.07
2022-08-27T22:15:01.196Z,121.85
2022-08-27T22:17:30.489Z,110.50
2022-08-27T22:19:57.819Z,120.75
2022-08-27T22:22:24.929Z,115.47
2022-08-27T22:24:58.237Z,104.05
2022-08-27T22:27:26.693Z,102.40
2022-08-27T22:29:53.866Z,98.43
2022-08-27T22:32:20.897Z,104.72
2022-08-27T22:34:47.797Z,106.73
2022-08-27T22:37:15.013Z,105.05
2022-08-27T22:39:42.026Z,99.03
2022-08-27T22:42:09.585Z,105.07
2022-08-27T22:44:40.579Z,105.07
2022-08-27T22:47:10.465Z,100.10
2022-08-27T22:49:37.691Z,101.60
2022-08-27T22:52:04.773Z,96.63
2022-08-27T22:54:31.887Z,102.97
2022-08-27T22:56:59.253Z,112.72
2022-08-27T22:59:26.496Z,107.23
2022-08-27T23:01:56.916Z,107.72
2022-08-27T23:04:39.217Z,117.72
2022-08-27T23:07:13.227Z,109.57
2022-08-27T23:09:41.765Z,107.13
2022-08-27T23:12:11.178Z,101.17
2022-08-27T23:14:40.359Z,105.28
2022-08-27T23:17:07.607Z,102.35
2022-08-27T23:19:34.837Z,97.80
2022-08-27T23:22:02.274Z,101.50
2022-08-27T23:25:00.511Z,103.00
2022-08-27T23:27:30.884Z,97.07
2022-08-27T23:30:00.741Z,105.03
2022-08-27T23:32:28.806Z,96.68
2022-08-27T23:34:56.358Z,90.25
2022-08-27T23:37:24.231Z,89.20
2022-08-27T23:39:51.538Z,93.55
2022-08-27T23:42:18.872Z,91.97
2022-08-27T23:44:46.636Z,99.63
2022-08-27T23:47:14.272Z,94.82
2022-08-27T23:49:43.332Z,94.67
2022-08-27T23:52:12.006Z,95.97
2022-08-27T23:54:39.551Z,97.57
2022-08-27T23:57:06.623Z,87.95
2022-08-27T23:59:33.742Z,96.75
